Olympic Champion — SYWD — position and weather

sailwx.info

Track history (hours):
 
Tides and Currents Weather Stations Pressure Air Temp Water Temp Dewpoint Dewpoint Depression Visibility Wind Speed Wind Dir Waves Ship Positions

Olympic Champion

Last reported at 2016-Apr-29 15:33 UTC. Time now 2016-May-03 02:57 UTC.
Position N 38°15' E 021°11'.

Length 204 m; draft 6.3 m.

Type: Passenger vessel. MMSI: 237280000.

Date/timePositionNaut miles runAvg speedWind from/ knotsBaromVisibWave heightAir tempDewpointWater temp
2016-Apr-29 15:33N 38°15' E 021°11'2619.2
2016-Apr-29 14:14N 38°14' E 021°43'6 1.5
2016-Apr-29 10:33N 38°15' E 021°36'2323.4
2016-Apr-29 09:34N 38°16' E 021°07'2523.8
2016-Apr-29 08:32N 38°30' E 020°41'  
2016-Apr-26 17:12N 38°20' E 020°58'1726.0
2016-Apr-26 16:33N 38°15' E 021°19'0 0.0
2016-Apr-25 15:33N 38°15' E 021°19'5022.7
2016-Apr-25 13:22N 38°39' E 020°23'51220.6
2016-Apr-24 12:34N 45°06' E 012°54'1918.6
2016-Apr-24 11:34N 45°14' E 012°30'1313.4
2016-Apr-24 10:34N 45°22' E 012°15'3 3.1
2016-Apr-24 09:33N 45°25' E 012°15'0 0.0
2016-Apr-24 08:33N 45°25' E 012°15'0 0.0
2016-Apr-24 07:33N 45°25' E 012°15'0 0.0
2016-Apr-24 06:33N 45°25' E 012°15'0 0.0
2016-Apr-24 05:33N 45°25' E 012°15'3 3.4
2016-Apr-24 04:33N 45°22' E 012°15'1413.8
2016-Apr-24 03:33N 45°16' E 012°33'1818.3
2016-Apr-24 02:33N 45°07' E 012°55'56719.5
2016-Apr-22 21:31N 38°15' E 021°37'5 1.3
2016-Apr-22 17:26N 38°14' E 021°43'12 0.4
2016-Apr-21 10:33N 38°16' E 021°28'2322.5
2016-Apr-21 09:33N 38°20' E 020°59'2523.5
2016-Apr-21 08:30N 38°33' E 020°32'  
Track history (hours):
 
Tides and Currents Weather Stations Pressure Air Temp Water Temp Dewpoint Dewpoint Depression Visibility Wind Speed Wind Dir Waves Ship Positions

Olympic Champion

Last reported at 2016-Apr-29 15:33 UTC. Time now 2016-May-03 02:57 UTC.
Position N 38°15' E 021°11'.

Length 204 m; draft 6.3 m.

Type: Passenger vessel. MMSI: 237280000.

Date/timePositionNaut miles runAvg speedWind from/ knotsBaromVisibWave heightAir tempDewpointWater temp
2016-Apr-29 15:33N 38°15' E 021°11'2619.2
2016-Apr-29 14:14N 38°14' E 021°43'6 1.5
2016-Apr-29 10:33N 38°15' E 021°36'2323.4
2016-Apr-29 09:34N 38°16' E 021°07'2523.8
2016-Apr-29 08:32N 38°30' E 020°41'  
2016-Apr-26 17:12N 38°20' E 020°58'1726.0
2016-Apr-26 16:33N 38°15' E 021°19'0 0.0
2016-Apr-25 15:33N 38°15' E 021°19'5022.7
2016-Apr-25 13:22N 38°39' E 020°23'51220.6
2016-Apr-24 12:34N 45°06' E 012°54'1918.6
2016-Apr-24 11:34N 45°14' E 012°30'1313.4
2016-Apr-24 10:34N 45°22' E 012°15'3 3.1
2016-Apr-24 09:33N 45°25' E 012°15'0 0.0
2016-Apr-24 08:33N 45°25' E 012°15'0 0.0
2016-Apr-24 07:33N 45°25' E 012°15'0 0.0
2016-Apr-24 06:33N 45°25' E 012°15'0 0.0
2016-Apr-24 05:33N 45°25' E 012°15'3 3.4
2016-Apr-24 04:33N 45°22' E 012°15'1413.8
2016-Apr-24 03:33N 45°16' E 012°33'1818.3
2016-Apr-24 02:33N 45°07' E 012°55'56719.5
2016-Apr-22 21:31N 38°15' E 021°37'5 1.3
2016-Apr-22 17:26N 38°14' E 021°43'12 0.4
2016-Apr-21 10:33N 38°16' E 021°28'2322.5
2016-Apr-21 09:33N 38°20' E 020°59'2523.5
2016-Apr-21 08:30N 38°33' E 020°32'  

Dump ship's entire track history